METAR Data
IDs: Format: Raw Decoded Include TAF

Data at: 0313 UTC 19 Oct 2021

KSRC 190256Z AUTO 00000KT 10SM CLR 09/08 A3014 RMK AO2 SLPNO T00940083 53009
KSRC 190156Z AUTO 00000KT 10SM CLR 10/08 A3013 RMK AO2 SLPNO T01000083
KSRC 190056Z AUTO 00000KT 10SM CLR 12/08 A3012 RMK AO2 SLPNO T01170083
KSRC 182356Z AUTO 00000KT 10SM CLR 14/08 A3012 RMK AO2 SLPNO T01440083 10228 20144 56010
KSRC 182256Z AUTO 19005KT 10SM CLR 19/07 A3012 RMK AO2 SLPNO T01890067
KSRC 182156Z AUTO 18005KT 10SM CLR 22/05 A3013 RMK AO2 SLPNO T02170050
KSRC 182056Z AUTO 15004KT 10SM CLR 22/04 A3015 RMK AO2 SLPNO T02170044 56022
KSRC 181956Z AUTO 19009KT 10SM CLR 22/07 A3016 RMK AO2 SLPNO T02220067
KSRC 181856Z AUTO 20007KT 10SM CLR 22/06 A3018 RMK AO2 SLPNO T02170061
KSRC 181756Z AUTO VRB05KT 10SM CLR 22/07 A3021 RMK AO2 SLPNO 6//// T02170072
KSRC 181656Z AUTO 16007KT 10SM CLR 21/07 A3024 RMK AO2 SLPNO T02060067
KSRC 181556Z AUTO VRB04KT 10SM 18/07 A3026 RMK AO2 SLPNO T01830072
KSRC 181456Z AUTO 00000KT 10SM CLR 14/09 A3026 RMK AO2 SLP246 T01440089 52012
KSRC 181356Z AUTO 00000KT 10SM CLR 09/09 A3025 RMK AO2 SLP245 T00940089
KSRC 181256Z AUTO 00000KT 6SM BR CLR 07/07 A3023 RMK AO2 SLP237 T00670067
KSRC 181240Z AUTO 00000KT 3SM BR CLR 06/06 A3023 RMK AO2
KSRC 181221Z AUTO 00000KT 1 1/4SM BR CLR 06/06 A3023 RMK AO2
KSRC 181217Z AUTO 00000KT 3/4SM BR CLR 06/06 A3023 RMK AO2
KSRC 181209Z AUTO 00000KT 1SM BR CLR 06/06 A3023 RMK AO2
KSRC 181156Z AUTO 00000KT 2 1/2SM BR CLR 06/06 A3023 RMK AO2 VIS 1 3/4V5 SLP235 T00560056 10078 20056 51003
KSRC 181128Z AUTO 00000KT 7SM CLR 06/06 A3022 RMK AO2
KSRC 181121Z AUTO 00000KT 2 1/2SM BR CLR 06/06 A3022 RMK AO2
KSRC 181056Z AUTO 00000KT 4SM BR CLR 06/06 A3022 RMK AO2 SLP232 T00560056
KSRC 181054Z AUTO 00000KT 4SM BR CLR 06/06 A3022 RMK AO2
KSRC 181029Z AUTO 00000KT 2 1/2SM BR CLR 06/06 A3021 RMK AO2
KSRC 180956Z AUTO 00000KT 3SM BR CLR 06/06 A3021 RMK AO2 SLP227 T00610061
KSRC 180944Z AUTO 00000KT 2SM BR CLR 06/06 A3020 RMK AO2
KSRC 180929Z AUTO 00000KT 4SM BR CLR 06/06 A3020 RMK AO2
KSRC 180912Z AUTO 00000KT 2SM BR CLR 06/06 A3020 RMK AO2
KSRC 180856Z AUTO 00000KT 5SM BR CLR 07/07 A3020 RMK AO2 SLP225 T00670067 58005
KSRC 180756Z AUTO 00000KT 4SM BR CLR 07/07 A3021 RMK AO2 SLP227 T00670067
KSRC 180737Z AUTO 00000KT 5SM BR CLR 07/07 A3021 RMK AO2
KSRC 180722Z AUTO 00000KT 2 1/2SM BR CLR 07/07 A3021 RMK AO2 VIS 1 1/4V5
KSRC 180708Z AUTO 00000KT 3SM BR CLR 07/07 A3021 RMK AO2
KSRC 180706Z AUTO 00000KT 1 1/2SM BR CLR 07/07 A3021 RMK AO2
KSRC 180703Z AUTO 00000KT 3/4SM BR CLR 07/07 A3021 RMK AO2
KSRC 180656Z AUTO 00000KT 1SM BR CLR 07/07 A3022 RMK AO2 SLP231 T00670067
KSRC 180644Z AUTO 00000KT 2SM BR CLR 07/07 A3022 RMK AO2
KSRC 180556Z AUTO 00000KT 3SM BR CLR 08/08 A3022 RMK AO2 SLP230 T00780078 10139 20078 402220044 58006
KSRC 180456Z AUTO 00000KT 4SM BR CLR 08/08 A3022 RMK AO2 SLP233 T00830083
KSRC 180356Z AUTO 00000KT 4SM BR CLR 09/08 A3023 RMK AO2 SLP236 T00890083
KSRC 180256Z AUTO 00000KT 8SM CLR 09/09 A3023 RMK AO2 SLP237 T00940089 53006
KSRC 180156Z AUTO 00000KT 10SM CLR 11/09 A3023 RMK AO2 SLP235 T01060089
KSRC 180056Z AUTO 00000KT 10SM CLR 12/09 A3022 RMK AO2 SLP233 T01170089
KSRC 172356Z AUTO 00000KT 10SM CLR 14/09 A3022 RMK AO2 SLP233 T01440089 10222 20144 55004
KSRC 172256Z AUTO 00000KT 10SM CLR 20/07 A3021 RMK AO2 SLP231 T02000067
KSRC 172156Z AUTO 01004KT 10SM CLR 22/05 A3021 RMK AO2 SLP230 T02170050
KSRC 172056Z AUTO 00000KT 10SM CLR 22/04 A3023 RMK AO2 SLP235 T02170039 56025
KSRC 171956Z AUTO VRB04KT 10SM CLR 22/03 A3025 RMK AO2 SLP241 T02170028
KSRC 171856Z AUTO 31007KT 270V340 10SM CLR 21/03 A3027 RMK AO2 SLP249 T02110028
KSRC 171756Z AUTO 23005KT 10SM CLR 21/03 A3030 RMK AO2 SLP260 T02060033 10211 20044 58013
KSRC 171656Z AUTO 13004KT 10SM CLR 20/03 A3033 RMK AO2 SLP269 T02000033
KSRC 171556Z AUTO 02003KT 10SM CLR 18/04 A3034 RMK AO2 SLP271 T01780039